Cullowhee, NC

2:36 AM EDT on October 01, 2016 (GMT -0400)
Speedwell Community | | Change Station

Elev 2306 ft 35.28 °N, 83.20 °W | Updated 8 seconds ago

Clear
Clear
46.1 °F
Feels Like 46 °F
N
0.0
Wind Variable Wind from WSW

Today
High -- | Low -- °F
--% Chance of Precip.
Yesterday
High -- | Low -- °F
Precip. -- in
Pressure 30.12 in
Visibility 2.5 miles
Clouds Clear
Windchill 46 °F
Dew Point 45 °F
Humidity 95%
Rainfall 0.00 in
Snow Depth Not available.
7:27 AM 7:15 PM
New Moon, 0% visible
METAR K1A5 010625Z AUTO 00000KT 2 1/2SM BR CLR 06/06 A3012 RMK AO2 VIS 1V5 T00640057
Pressure 30.12 in
Visibility 2.5 miles
Clouds Clear
Windchill 46 °F
Dew Point 45 °F
Humidity 95%
Rainfall 0.00 in
Snow Depth Not available.
7:27 AM 7:15 PM
New Moon, 0% visible
METAR K1A5 010625Z AUTO 00000KT 2 1/2SM BR CLR 06/06 A3012 RMK AO2 VIS 1V5 T00640057

10-Day Weather Forecast

Almanac

Astronomy

Oct. 01, 2016 Rise Set
Actual Time
Civil Twilight
Nautical Twilight
Astronomical Twilight
Moon
Length of Visible Light
Length of Day
Tomorrow will be .
, % of the Moon is Illuminated

Today's Extremes

State Highs State Lows

Community

WunderPhotos

Upload Photos

1,942,898 photos uploaded!

WunderBlog® & News

Nearby

Air Quality

  Air Quality AQ Index Pollutant
Not available.

Snow Depth

Station Depth Elevation

Earthquake Activity

City Distance Mag. Time & Date
Minimum magnitude displayed is 2.5.

Coastal Water Temperatures

Place Temperature

Stations

Nearby Weather Stations

Station Location Temp. Windchill Dew Point Humidity Wind Precip. Elev Updated Type
                   

Watches & Warnings

There are currently no watches in effect.